createdAt,value
2022-08-26T00:01:29.909Z,95255.78
2022-08-26T00:04:31.773Z,95252.41
2022-08-26T00:07:33.514Z,95249.84
2022-08-26T00:10:37.078Z,95242.06
2022-08-26T00:13:39.590Z,95241.16
2022-08-26T00:16:49.030Z,95237.94
2022-08-26T00:19:50.845Z,95241.41
2022-08-26T00:22:54.678Z,95244.31
2022-08-26T00:25:57.924Z,95235.94
2022-08-26T00:29:00.435Z,95233.97
2022-08-26T00:32:02.382Z,95241.13
2022-08-26T00:35:06.170Z,95229.09
2022-08-26T00:38:07.876Z,95230.44
2022-08-26T00:41:12.454Z,95237.31
2022-08-26T00:44:14.444Z,95239.63
2022-08-26T00:47:24.394Z,95239.63
2022-08-26T00:50:29.498Z,95241.75
2022-08-26T00:53:34.406Z,95243.59
2022-08-26T00:56:41.800Z,95247.88
2022-08-26T00:59:45.386Z,95242.06
2022-08-26T01:02:48.193Z,95242.06
2022-08-26T01:05:51.607Z,95230.94
2022-08-26T01:08:53.644Z,95231.81
2022-08-26T01:11:59.070Z,95235.19
2022-08-26T01:15:01.394Z,95238.25
2022-08-26T01:18:04.274Z,95228.66
2022-08-26T01:21:11.214Z,95227.13
2022-08-26T01:24:14.473Z,95233.34
2022-08-26T01:27:18.802Z,95238.56
2022-08-26T01:30:20.741Z,95237.91
2022-08-26T01:33:26.721Z,95239.28
2022-08-26T01:36:28.677Z,95228.13
2022-08-26T01:39:32.213Z,95230.25
2022-08-26T01:42:34.062Z,95237.88
2022-08-26T01:45:37.268Z,95237.72
2022-08-26T01:48:40.059Z,95230.38
2022-08-26T01:51:41.959Z,95226.59
2022-08-26T01:54:46.299Z,95223.41
2022-08-26T01:57:53.794Z,95230.72
2022-08-26T02:00:58.732Z,95237.88
2022-08-26T02:04:05.224Z,95232.41
2022-08-26T02:07:08.619Z,95233.59
2022-08-26T02:10:12.043Z,95236.16
2022-08-26T02:13:13.849Z,95236.63
2022-08-26T02:16:17.673Z,95229.75
2022-08-26T02:19:20.699Z,95230.88
2022-08-26T02:22:24.700Z,95236.34
2022-08-26T02:25:30.967Z,95232.88
2022-08-26T02:28:44.987Z,95235.31
2022-08-26T02:31:46.749Z,95225.34
2022-08-26T02:34:48.495Z,95220.22
2022-08-26T02:37:50.914Z,95219.91
2022-08-26T02:40:54.032Z,95215.41
2022-08-26T02:43:55.697Z,95214.06
2022-08-26T02:46:58.074Z,95216.13
2022-08-26T02:50:00.357Z,95218.06
2022-08-26T02:53:02.251Z,95217.19
2022-08-26T02:56:07.233Z,95218.25
2022-08-26T02:59:08.976Z,95222.25
2022-08-26T03:02:10.962Z,95222.81
2022-08-26T03:05:13.209Z,95218.38
2022-08-26T03:08:14.927Z,95221.06
2022-08-26T03:11:18.393Z,95222.47
2022-08-26T03:14:20.124Z,95218.59
2022-08-26T03:17:22.603Z,95219.53
2022-08-26T03:20:24.306Z,95218.28
2022-08-26T03:23:26.170Z,95217.72
2022-08-26T03:26:29.332Z,95216.56
2022-08-26T03:29:31.185Z,95220.44
2022-08-26T03:32:34.859Z,95221.69
2022-08-26T03:35:36.911Z,95211.94
2022-08-26T03:38:38.819Z,95213.94
2022-08-26T03:41:42.555Z,95220.56
2022-08-26T03:44:44.265Z,95217.31
2022-08-26T03:47:46.583Z,95206.16
2022-08-26T03:50:49.141Z,95210.75
2022-08-26T03:53:53.158Z,95210.75
2022-08-26T03:56:56.355Z,95205.78
2022-08-26T03:59:58.920Z,95213.88
2022-08-26T04:03:00.671Z,95221.06
2022-08-26T04:06:02.358Z,95221.81
2022-08-26T04:09:05.026Z,95216.66
2022-08-26T04:12:08.629Z,95220.03
2022-08-26T04:15:11.340Z,95232.59
2022-08-26T04:18:13.008Z,95227.06
2022-08-26T04:21:15.301Z,95226.19
2022-08-26T04:24:17.554Z,95224.66
2022-08-26T04:27:20.832Z,95226.38
2022-08-26T04:30:22.528Z,95220.66
2022-08-26T04:33:32.562Z,95228.53
2022-08-26T04:36:35.014Z,95220.72
2022-08-26T04:39:37.476Z,95222.50
2022-08-26T04:42:40.805Z,95218.06
2022-08-26T04:45:42.729Z,95228.13
2022-08-26T04:48:44.827Z,95221.50
2022-08-26T04:51:47.663Z,95222.78
2022-08-26T04:54:49.676Z,95229.56
2022-08-26T04:57:52.906Z,95225.44
2022-08-26T05:00:55.544Z,95225.38
2022-08-26T05:03:57.640Z,95217.38
2022-08-26T05:07:02.447Z,95220.78
2022-08-26T05:10:05.991Z,95224.97
2022-08-26T05:13:15.119Z,95226.88
2022-08-26T05:16:17.523Z,95234.22
2022-08-26T05:19:19.664Z,95231.66
2022-08-26T05:22:22.757Z,95233.38
2022-08-26T05:25:24.684Z,95234.31
2022-08-26T05:28:30.652Z,95237.38
2022-08-26T05:31:33.225Z,95240.59
2022-08-26T05:34:34.944Z,95235.00
2022-08-26T05:37:37.139Z,95235.63
2022-08-26T05:40:40.882Z,95241.13
2022-08-26T05:43:44.208Z,95235.16
2022-08-26T05:46:46.085Z,95235.81
2022-08-26T05:49:51.346Z,95238.88
2022-08-26T05:52:53.474Z,95239.50
2022-08-26T05:55:55.348Z,95237.38
2022-08-26T05:58:59.813Z,95240.00
2022-08-26T06:02:02.314Z,95233.16
2022-08-26T06:05:05.176Z,95235.44
2022-08-26T06:15:33.799Z,95238.22
2022-08-26T06:18:36.919Z,95245.69
2022-08-26T06:21:40.146Z,95246.16
2022-08-26T06:24:41.922Z,95255.97
2022-08-26T06:27:46.939Z,95252.44
2022-08-26T06:30:50.617Z,95243.19
2022-08-26T06:33:53.063Z,95244.88
2022-08-26T06:36:56.758Z,95248.06
2022-08-26T06:39:58.757Z,95243.81
2022-08-26T06:43:00.456Z,95250.81
2022-08-26T06:46:04.972Z,95252.19
2022-08-26T06:49:06.764Z,95250.06
2022-08-26T06:52:09.915Z,95248.59
2022-08-26T06:55:11.681Z,95252.69
2022-08-26T06:58:13.817Z,95249.63
2022-08-26T07:01:18.214Z,95252.38
2022-08-26T07:04:21.931Z,95251.81
2022-08-26T07:07:24.674Z,95255.03
2022-08-26T07:10:26.669Z,95257.63
2022-08-26T07:13:29.891Z,95256.41
2022-08-26T07:16:34.151Z,95253.06
2022-08-26T07:19:37.623Z,95251.69
2022-08-26T07:22:39.473Z,95258.72
2022-08-26T07:25:41.813Z,95256.13
2022-08-26T07:28:44.167Z,95254.31
2022-08-26T07:31:47.278Z,95253.09
2022-08-26T07:34:50.422Z,95252.94
2022-08-26T07:37:56.804Z,95254.03
2022-08-26T07:40:58.787Z,95256.78
2022-08-26T07:44:00.438Z,95260.09
2022-08-26T07:47:03.853Z,95263.47
2022-08-26T07:50:12.278Z,95256.09
2022-08-26T07:53:14.704Z,95257.78
2022-08-26T07:56:20.206Z,95256.56
2022-08-26T07:59:22.245Z,95261.56
2022-08-26T08:02:26.845Z,95266.16
2022-08-26T08:05:33.472Z,95264.03
2022-08-26T08:08:35.846Z,95253.81
2022-08-26T08:11:37.527Z,95259.16
2022-08-26T08:14:39.309Z,95259.75
2022-08-26T08:17:42.643Z,95254.00
2022-08-26T08:20:47.614Z,95254.56
2022-08-26T08:24:01.000Z,95252.72
2022-08-26T08:27:02.676Z,95258.50
2022-08-26T08:30:05.358Z,95252.38
2022-08-26T08:33:08.860Z,95253.69
2022-08-26T08:36:12.455Z,95250.63
2022-08-26T08:39:20.389Z,95260.28
2022-08-26T08:42:44.511Z,95252.09
2022-08-26T08:45:49.569Z,95253.16
2022-08-26T08:48:54.808Z,95249.41
2022-08-26T08:51:58.652Z,95261.59
2022-08-26T08:55:01.230Z,95251.88
2022-08-26T08:58:05.544Z,95249.91
2022-08-26T09:01:14.707Z,95245.75
2022-08-26T09:04:31.300Z,95248.75
2022-08-26T09:07:37.533Z,95242.94
2022-08-26T09:10:40.504Z,95251.16
2022-08-26T09:13:44.644Z,95243.66
2022-08-26T09:16:50.648Z,95247.03
2022-08-26T09:19:54.082Z,95248.84
2022-08-26T09:22:57.835Z,95239.00
2022-08-26T09:26:00.369Z,95249.94
2022-08-26T09:29:04.366Z,95242.81
2022-08-26T09:32:23.685Z,95245.31
2022-08-26T09:35:27.424Z,95244.19
2022-08-26T09:38:33.774Z,95244.50
2022-08-26T09:41:35.453Z,95249.44
2022-08-26T09:44:52.413Z,95246.09
2022-08-26T09:47:56.184Z,95242.88
2022-08-26T09:50:58.999Z,95254.47
2022-08-26T09:54:03.642Z,95237.22
2022-08-26T09:57:12.412Z,95243.53
2022-08-26T10:00:26.591Z,95242.66
2022-08-26T10:03:31.388Z,95233.28
2022-08-26T10:06:36.357Z,95232.22
2022-08-26T10:09:41.226Z,95226.78
2022-08-26T10:12:47.702Z,95224.22
2022-08-26T10:15:54.115Z,95224.41
2022-08-26T10:19:00.675Z,95220.19
2022-08-26T10:22:04.042Z,95218.97
2022-08-26T10:25:09.318Z,95213.31
2022-08-26T10:28:17.764Z,95210.38
2022-08-26T10:31:27.769Z,95207.34
2022-08-26T10:34:29.798Z,95205.81
2022-08-26T10:37:34.897Z,95198.34
2022-08-26T10:40:43.641Z,95190.28
2022-08-26T10:43:48.640Z,95182.34
2022-08-26T10:46:53.766Z,95188.34
2022-08-26T10:50:00.481Z,95184.28
2022-08-26T10:53:08.757Z,95181.84
2022-08-26T10:56:19.169Z,95180.97
2022-08-26T10:59:26.413Z,95180.09
2022-08-26T11:02:33.854Z,95180.59
2022-08-26T11:05:35.514Z,95192.50
2022-08-26T11:08:45.101Z,95182.47
2022-08-26T11:11:49.476Z,95184.00
2022-08-26T11:14:58.766Z,95176.53
2022-08-26T11:18:03.885Z,95172.69
2022-08-26T11:21:36.094Z,95177.41
2022-08-26T11:24:59.256Z,95168.38
2022-08-26T11:28:03.138Z,95168.19
2022-08-26T11:31:07.940Z,95161.00
2022-08-26T11:34:13.169Z,95161.38
2022-08-26T11:37:17.274Z,95157.19
2022-08-26T11:40:21.041Z,95147.72
2022-08-26T11:43:29.783Z,95149.47
2022-08-26T11:46:32.223Z,95147.59
2022-08-26T11:49:34.026Z,95148.34
2022-08-26T11:52:35.781Z,95142.66
2022-08-26T11:55:41.745Z,95145.25
2022-08-26T11:58:45.603Z,95144.25
2022-08-26T12:01:49.678Z,95144.47
2022-08-26T12:04:51.851Z,95137.88
2022-08-26T12:07:54.059Z,95139.16
2022-08-26T12:11:02.433Z,95138.41
2022-08-26T12:14:07.412Z,95136.63
2022-08-26T12:17:10.407Z,95138.13
2022-08-26T12:20:28.715Z,95130.84
2022-08-26T12:23:37.453Z,95128.09
2022-08-26T12:26:39.412Z,95127.91
2022-08-26T12:29:42.566Z,95119.06
2022-08-26T12:32:57.659Z,95117.25
2022-08-26T12:36:00.360Z,95106.81
2022-08-26T12:39:06.777Z,95109.84
2022-08-26T12:42:21.711Z,95112.44
2022-08-26T12:45:28.450Z,95118.22
2022-08-26T12:48:31.893Z,95109.94
2022-08-26T12:51:33.641Z,95105.91
2022-08-26T12:54:35.347Z,95103.38
2022-08-26T12:57:37.762Z,95094.50
2022-08-26T13:00:42.416Z,95087.72
2022-08-26T13:03:45.487Z,95087.25
2022-08-26T13:06:47.245Z,95092.78
2022-08-26T13:09:49.383Z,95086.75
2022-08-26T13:12:51.042Z,95070.41
2022-08-26T13:15:54.177Z,95064.91
2022-08-26T13:18:57.400Z,95061.44
2022-08-26T13:22:00.392Z,95057.91
2022-08-26T13:25:02.182Z,95058.94
2022-08-26T13:28:03.900Z,95054.41
2022-08-26T13:31:07.291Z,95047.84
2022-08-26T13:34:09.692Z,95045.63
2022-08-26T13:37:11.448Z,95047.88
2022-08-26T13:40:13.202Z,95048.38
2022-08-26T13:43:14.977Z,95043.38
2022-08-26T13:46:18.183Z,95046.63
2022-08-26T13:49:19.960Z,95057.22
2022-08-26T13:52:25.611Z,95051.44
2022-08-26T13:55:32.161Z,95055.19
2022-08-26T13:58:33.931Z,95050.66
2022-08-26T14:01:37.049Z,95048.34
2022-08-26T14:04:38.727Z,95046.31
2022-08-26T14:07:40.793Z,95047.06
2022-08-26T14:10:42.614Z,95042.72
2022-08-26T14:13:44.475Z,95047.44
2022-08-26T14:16:58.735Z,95050.38
2022-08-26T14:20:01.991Z,95047.06
2022-08-26T14:23:13.677Z,95046.19
2022-08-26T14:26:21.236Z,95055.25
2022-08-26T14:29:30.185Z,95051.22
2022-08-26T14:32:33.384Z,95049.94
2022-08-26T14:35:35.118Z,95050.56
2022-08-26T14:38:36.866Z,95042.75
2022-08-26T14:41:41.275Z,95043.56
2022-08-26T14:44:44.486Z,95035.91
2022-08-26T14:47:47.930Z,95044.72
2022-08-26T14:50:49.739Z,95036.69
2022-08-26T14:53:51.938Z,95039.94
2022-08-26T14:56:55.004Z,95039.28
2022-08-26T14:59:56.708Z,95042.28
2022-08-26T15:02:59.964Z,95037.72
2022-08-26T15:06:01.780Z,95035.47
2022-08-26T15:09:04.645Z,95033.75
2022-08-26T15:12:06.493Z,95032.25
2022-08-26T15:15:09.035Z,95033.19
2022-08-26T15:18:12.155Z,95033.78
2022-08-26T15:21:13.884Z,95026.78
2022-08-26T15:24:16.619Z,95024.22
2022-08-26T15:27:18.585Z,95023.03
2022-08-26T15:30:20.268Z,95022.38
2022-08-26T15:33:23.335Z,95014.38
2022-08-26T15:36:25.442Z,95010.19
2022-08-26T15:39:27.133Z,95015.53
2022-08-26T15:42:29.101Z,95011.16
2022-08-26T15:45:32.141Z,95008.31
2022-08-26T15:48:35.273Z,95017.59
2022-08-26T15:51:45.388Z,95009.03
2022-08-26T15:54:47.779Z,95004.84
2022-08-26T15:57:51.701Z,95004.19
2022-08-26T16:00:54.918Z,94997.94
2022-08-26T16:03:58.164Z,94992.16
2022-08-26T16:06:59.978Z,94986.88
2022-08-26T16:10:01.816Z,94986.88
2022-08-26T16:13:03.611Z,94978.56
2022-08-26T16:16:05.464Z,94974.53
2022-08-26T16:19:08.998Z,94980.81
2022-08-26T16:22:10.730Z,94981.97
2022-08-26T16:25:12.525Z,94980.91
2022-08-26T16:28:14.814Z,94985.91
2022-08-26T16:31:28.153Z,94993.22
2022-08-26T16:34:31.257Z,94987.44
2022-08-26T16:37:35.443Z,95005.66
2022-08-26T16:40:39.483Z,95002.16
2022-08-26T16:43:41.583Z,95008.34
2022-08-26T16:46:43.325Z,95006.28
2022-08-26T16:49:46.574Z,94993.03
2022-08-26T16:52:50.710Z,94989.88
2022-08-26T16:56:00.278Z,94994.91
2022-08-26T16:59:02.482Z,94988.91
2022-08-26T17:02:04.661Z,94990.41
2022-08-26T17:05:08.697Z,95003.53
2022-08-26T17:08:10.613Z,95008.31
2022-08-26T17:11:12.573Z,95005.53
2022-08-26T17:14:14.305Z,95017.84
2022-08-26T17:17:16.019Z,95015.59
2022-08-26T17:20:19.467Z,95020.16
2022-08-26T17:23:21.779Z,95019.41
2022-08-26T17:26:25.586Z,95014.13
2022-08-26T17:29:27.295Z,95015.13
2022-08-26T17:32:29.138Z,95009.31
2022-08-26T17:35:32.388Z,95007.53
2022-08-26T17:38:34.413Z,95012.56
2022-08-26T17:41:36.086Z,95014.78
2022-08-26T17:44:37.908Z,95022.31
2022-08-26T17:47:39.975Z,95031.13
2022-08-26T17:50:43.553Z,95042.63
2022-08-26T17:53:51.710Z,95048.78
2022-08-26T17:56:53.720Z,95048.16
2022-08-26T17:59:56.005Z,95056.25
2022-08-26T18:02:57.738Z,95055.50
2022-08-26T18:06:01.356Z,95056.25
2022-08-26T18:09:03.806Z,95061.00
2022-08-26T18:12:05.730Z,95061.00
2022-08-26T18:15:08.179Z,95064.91
2022-08-26T18:18:09.909Z,95061.72
2022-08-26T18:21:13.886Z,95062.78
2022-08-26T18:24:15.646Z,95057.28
2022-08-26T18:27:17.298Z,95051.97
2022-08-26T18:30:20.336Z,95060.16
2022-08-26T18:33:22.007Z,95058.72
2022-08-26T18:36:26.754Z,95057.34
2022-08-26T18:39:28.469Z,95058.69
2022-08-26T18:42:30.173Z,95057.34
2022-08-26T18:45:31.819Z,95059.03
2022-08-26T18:48:34.102Z,95065.84
2022-08-26T18:51:37.279Z,95072.94
2022-08-26T18:54:39.006Z,95071.44
2022-08-26T18:57:40.699Z,95070.13
2022-08-26T19:00:42.516Z,95064.38
2022-08-26T19:03:44.825Z,95060.06
2022-08-26T19:06:48.831Z,95068.63
2022-08-26T19:09:53.867Z,95067.81
2022-08-26T19:13:00.096Z,95073.78
2022-08-26T19:16:02.919Z,95074.34
2022-08-26T19:19:05.399Z,95070.97
2022-08-26T19:22:08.850Z,95072.22
2022-08-26T19:25:10.589Z,95074.31
2022-08-26T19:28:13.089Z,95081.63
2022-08-26T19:31:14.963Z,95079.34
2022-08-26T19:34:18.301Z,95074.91
2022-08-26T19:37:24.394Z,95079.16
2022-08-26T19:40:26.668Z,95071.53
2022-08-26T19:43:29.030Z,95073.75
2022-08-26T19:46:34.567Z,95072.50
2022-08-26T19:49:36.821Z,95071.72
2022-08-26T19:52:40.733Z,95079.53
2022-08-26T19:55:42.418Z,95080.97
2022-08-26T19:58:44.533Z,95075.38
2022-08-26T20:01:46.608Z,95071.56
2022-08-26T20:05:02.461Z,95076.03
2022-08-26T20:08:05.993Z,95071.56
2022-08-26T20:11:09.342Z,95064.69
2022-08-26T20:14:13.503Z,95068.41
2022-08-26T20:17:15.577Z,95067.84
2022-08-26T20:20:32.960Z,95069.13
2022-08-26T20:23:37.557Z,95078.13
2022-08-26T20:26:40.919Z,95086.31
2022-08-26T20:29:42.808Z,95082.78
2022-08-26T20:32:44.770Z,95079.75
2022-08-26T20:35:46.545Z,95076.63
2022-08-26T20:38:50.099Z,95076.31
2022-08-26T20:41:51.904Z,95080.31
2022-08-26T20:44:54.500Z,95081.34
2022-08-26T20:47:56.841Z,95078.53
2022-08-26T20:50:59.009Z,95084.09
2022-08-26T20:54:02.309Z,95094.84
2022-08-26T20:57:04.374Z,95084.38
2022-08-26T21:00:06.539Z,95077.25
2022-08-26T21:03:08.236Z,95074.50
2022-08-26T21:06:10.221Z,95079.28
2022-08-26T21:09:14.065Z,95078.88
2022-08-26T21:12:17.068Z,95079.47
2022-08-26T21:15:18.926Z,95082.56
2022-08-26T21:18:20.645Z,95087.94
2022-08-26T21:21:25.000Z,95082.63
2022-08-26T21:24:28.298Z,95088.28
2022-08-26T21:27:30.239Z,95098.34
2022-08-26T21:30:32.004Z,95092.38
2022-08-26T21:33:34.212Z,95089.63
2022-08-26T21:36:36.045Z,95098.56
2022-08-26T21:39:39.147Z,95092.03
2022-08-26T21:42:41.610Z,95087.13
2022-08-26T21:45:43.373Z,95089.28
2022-08-26T21:48:50.369Z,95094.16
2022-08-26T21:51:52.570Z,95093.34
2022-08-26T21:54:57.868Z,95079.59
2022-08-26T21:58:00.179Z,95086.25
2022-08-26T22:01:02.149Z,95083.66
2022-08-26T22:04:04.996Z,95092.44
2022-08-26T22:07:06.734Z,95082.75
2022-08-26T22:13:11.409Z,95074.25
2022-08-26T22:16:17.517Z,95067.34
2022-08-26T22:19:19.403Z,95066.22
2022-08-26T22:22:21.472Z,95062.97
2022-08-26T22:25:23.181Z,95062.44
2022-08-26T22:28:26.846Z,95054.66
2022-08-26T22:31:38.116Z,95059.28
2022-08-26T22:34:40.326Z,95059.28
2022-08-26T22:37:42.075Z,95061.91
2022-08-26T22:40:44.334Z,95066.50
2022-08-26T22:43:47.886Z,95066.78
2022-08-26T22:46:50.446Z,95058.53
2022-08-26T22:49:52.242Z,95064.59
2022-08-26T22:52:53.918Z,95063.41
2022-08-26T22:55:55.718Z,95076.41
2022-08-26T22:58:58.858Z,95075.81
2022-08-26T23:02:00.568Z,95070.13
2022-08-26T23:05:02.388Z,95068.34
2022-08-26T23:08:04.301Z,95060.84
2022-08-26T23:11:07.672Z,95055.00
2022-08-26T23:14:10.844Z,95060.66
2022-08-26T23:17:12.860Z,95066.34
2022-08-26T23:20:16.198Z,95060.41
2022-08-26T23:23:17.927Z,95052.72
2022-08-26T23:26:19.793Z,95058.78
2022-08-26T23:29:22.955Z,95059.53
2022-08-26T23:32:24.700Z,95062.97
2022-08-26T23:35:26.690Z,95061.47
2022-08-26T23:38:28.359Z,95059.28
2022-08-26T23:41:31.412Z,95065.69
2022-08-26T23:44:34.523Z,95065.06
2022-08-26T23:47:36.311Z,95066.63
2022-08-26T23:50:38.045Z,95071.50
2022-08-26T23:53:39.776Z,95074.25
2022-08-26T23:56:41.723Z,95077.94
2022-08-26T23:59:44.867Z,95081.00
